Time;durP1;ratioP1;P1;durP2;ratioP2;P2;SDS_P1;SDS_P2;PMS_P1;PMS_P2;Temp;Humidity;BMP_temperature;BMP_pressure;BME280_temperature;BME280_humidity;BME280_pressure;Samples;Min_cycle;Max_cycle;Signal;HPM_P1;HPM_P2
2021/05/15 00:00:29;;;;;;;0.33;0.20;;;;;;;11.78;91.53;99510.78;5012383;28;20493;-51
2021/05/15 00:02:56;;;;;;;0.30;0.20;;;;;;;11.52;92.61;99515.53;5012490;28;20480;-51
2021/05/15 00:05:22;;;;;;;0.30;0.20;;;;;;;11.60;92.41;99517.81;5012340;28;20448;-51
2021/05/15 00:07:47;;;;;;;0.30;0.20;;;;;;;11.64;92.05;99514.06;5013534;28;20938;-51
2021/05/15 00:10:13;;;;;;;0.30;0.20;;;;;;;11.49;93.03;99505.00;5015275;28;20574;-51
2021/05/15 00:12:38;;;;;;;0.30;0.20;;;;;;;11.57;92.71;99509.97;5016456;28;20186;-51
2021/05/15 00:15:06;;;;;;;0.30;0.20;;;;;;;11.59;92.70;99500.13;5016507;28;20205;-51
2021/05/15 00:17:33;;;;;;;0.30;0.20;;;;;;;11.46;93.88;99498.94;5016186;28;20185;-51
2021/05/15 00:19:58;;;;;;;0.30;0.20;;;;;;;11.36;94.16;99498.50;5016134;28;20468;-51
2021/05/15 00:22:23;;;;;;;0.30;0.20;;;;;;;11.07;95.34;99498.91;5015808;28;20447;-51
2021/05/15 00:24:49;;;;;;;0.30;0.20;;;;;;;10.94;97.60;99493.25;5016228;28;20227;-51
2021/05/15 00:27:14;;;;;;;0.30;0.20;;;;;;;11.09;97.23;99487.25;5016008;28;20706;-51
2021/05/15 00:29:40;;;;;;;0.30;0.20;;;;;;;11.23;97.31;99498.16;5016027;28;20248;-51
2021/05/15 00:32:06;;;;;;;0.30;0.20;;;;;;;11.56;94.77;99492.28;5015929;28;20262;-51
2021/05/15 00:34:31;;;;;;;0.30;0.20;;;;;;;11.49;95.18;99491.69;5015884;28;20663;-51
2021/05/15 00:36:57;;;;;;;0.30;0.20;;;;;;;11.16;96.73;99491.41;5015617;28;20466;-51
2021/05/15 00:39:22;;;;;;;0.30;0.20;;;;;;;11.05;97.47;99487.47;5015879;28;20214;-51
2021/05/15 00:41:48;;;;;;;0.30;0.20;;;;;;;11.04;98.63;99488.41;5016031;28;20548;-51
2021/05/15 00:44:29;;;;;;;0.30;0.20;;;;;;;11.22;97.72;99490.25;5015708;28;20276;-51
2021/05/15 00:46:55;;;;;;;0.30;0.20;;;;;;;11.38;96.88;99490.47;5011263;28;20495;-51
2021/05/15 00:49:21;;;;;;;0.30;0.30;;;;;;;11.36;97.76;99489.66;5011970;28;20436;-51
2021/05/15 00:51:47;;;;;;;0.30;0.20;;;;;;;11.33;97.46;99482.66;5011277;28;20503;-51
2021/05/15 00:54:13;;;;;;;0.30;0.20;;;;;;;11.21;97.79;99483.22;5006967;28;20237;-51
2021/05/15 00:56:39;;;;;;;0.30;0.20;;;;;;;11.31;97.83;99479.22;5015368;28;20468;-51
2021/05/15 00:59:05;;;;;;;0.30;0.20;;;;;;;11.23;97.50;99487.53;5015259;28;20205;-51
2021/05/15 01:01:31;;;;;;;0.30;0.20;;;;;;;11.17;98.13;99484.28;5015363;28;20442;-51
2021/05/15 01:03:57;;;;;;;0.30;0.20;;;;;;;11.12;98.08;99484.50;5015203;28;20468;-51
2021/05/15 01:06:23;;;;;;;0.30;0.20;;;;;;;11.00;99.06;99489.47;5015463;28;20888;-51
2021/05/15 01:08:49;;;;;;;0.30;0.20;;;;;;;10.81;99.84;99484.06;5015879;28;20437;-51
2021/05/15 01:11:18;;;;;;;0.30;0.20;;;;;;;10.96;99.21;99484.31;5015061;28;20526;-51
2021/05/15 01:13:59;;;;;;;0.30;0.20;;;;;;;10.73;99.91;99483.53;5015285;28;20228;-51
2021/05/15 01:16:25;;;;;;;0.30;0.20;;;;;;;10.89;99.56;99487.28;5015274;28;20440;-51
2021/05/15 01:18:51;;;;;;;0.30;0.20;;;;;;;10.84;99.70;99484.81;5014872;28;20429;-51
2021/05/15 01:21:17;;;;;;;0.30;0.20;;;;;;;11.03;98.69;99474.25;5015318;28;20229;-51
2021/05/15 01:23:43;;;;;;;0.30;0.20;;;;;;;11.16;97.77;99483.41;5015082;28;20444;-51
2021/05/15 01:26:18;;;;;;;0.30;0.20;;;;;;;11.12;97.52;99486.28;5015133;28;20499;-51
2021/05/15 01:28:46;;;;;;;0.30;0.20;;;;;;;11.24;97.11;99480.44;5014891;28;20247;-51
2021/05/15 01:31:12;;;;;;;0.30;0.20;;;;;;;11.40;95.98;99485.94;5014821;28;20555;-51
2021/05/15 01:33:38;;;;;;;0.30;0.20;;;;;;;11.62;95.28;99481.34;5014854;28;20449;-51
2021/05/15 01:36:08;;;;;;;0.30;0.20;;;;;;;11.68;94.56;99478.44;5015007;28;20472;-51
2021/05/15 01:38:34;;;;;;;0.30;0.20;;;;;;;11.65;94.51;99470.59;5014834;28;20448;-51
2021/05/15 01:41:03;;;;;;;0.30;0.20;;;;;;;11.57;94.70;99470.91;5014741;28;20507;-51
2021/05/15 01:43:29;;;;;;;0.30;0.20;;;;;;;11.66;94.99;99464.31;5014703;28;20547;-51
2021/05/15 01:45:54;;;;;;;0.30;0.20;;;;;;;11.67;94.59;99466.03;5014486;28;21077;-51
2021/05/15 01:48:20;;;;;;;0.30;0.20;;;;;;;11.66;95.01;99459.00;5006322;28;20288;-51
2021/05/15 01:51:05;;;;;;;0.30;0.20;;;;;;;11.82;94.96;99472.50;5014540;28;20236;-51
2021/05/15 01:53:34;;;;;;;0.30;0.20;;;;;;;11.80;94.33;99464.56;5000055;28;20202;-51
2021/05/15 01:56:00;;;;;;;0.30;0.20;;;;;;;11.78;94.41;99457.53;5014442;28;20520;-51
2021/05/15 01:58:26;;;;;;;8.23;1.17;;;;;;;11.91;94.07;99457.84;5014389;28;20451;-51
2021/05/15 02:00:53;;;;;;;0.30;0.20;;;;;;;11.83;94.16;99461.75;5014646;28;20480;-51
2021/05/15 02:03:21;;;;;;;0.30;0.20;;;;;;;11.88;94.46;99463.34;5014230;28;20447;-51
2021/05/15 02:05:50;;;;;;;0.30;0.20;;;;;;;12.04;93.26;99449.22;5014289;28;20495;-51
2021/05/15 02:08:17;;;;;;;0.30;0.20;;;;;;;11.91;93.50;99448.06;5014226;28;20467;-51
2021/05/15 02:10:42;;;;;;;0.30;0.20;;;;;;;11.93;93.74;99448.03;5014012;28;20468;-51
2021/05/15 02:13:08;;;;;;;0.30;0.20;;;;;;;12.00;94.18;99447.63;5014235;28;20448;-51
2021/05/15 02:15:33;;;;;;;0.30;0.20;;;;;;;11.90;94.91;99442.81;5014268;28;20240;-51
2021/05/15 02:17:59;;;;;;;0.30;0.20;;;;;;;11.90;94.34;99443.69;5013905;28;20277;-51
2021/05/15 02:20:25;;;;;;;0.30;0.20;;;;;;;11.99;94.53;99442.38;5013925;28;20312;-51
2021/05/15 02:22:51;;;;;;;0.30;0.20;;;;;;;11.92;94.89;99444.47;5013725;28;20535;-51
2021/05/15 02:25:17;;;;;;;0.30;0.20;;;;;;;11.82;95.51;99429.88;5013750;28;20220;-51
2021/05/15 02:27:42;;;;;;;0.30;0.20;;;;;;;11.90;95.59;99429.50;5013979;28;20218;-51
2021/05/15 02:30:08;;;;;;;0.30;0.20;;;;;;;11.87;95.07;99425.19;5013271;28;20217;-51
2021/05/15 02:32:34;;;;;;;0.30;0.20;;;;;;;12.14;94.32;99426.53;5013942;28;20256;-51
2021/05/15 02:34:59;;;;;;;0.30;0.20;;;;;;;12.01;95.24;99412.06;5014188;28;20548;-51
2021/05/15 02:37:25;;;;;;;0.30;0.30;;;;;;;11.94;95.53;99417.78;5013595;28;20190;-51
2021/05/15 02:39:50;;;;;;;0.30;0.20;;;;;;;11.86;95.54;99421.66;5013547;28;20703;-51
2021/05/15 02:42:16;;;;;;;0.30;0.20;;;;;;;12.08;95.16;99417.97;5013719;28;20205;-51
2021/05/15 02:44:44;;;;;;;0.30;0.20;;;;;;;11.89;95.85;99418.00;5013724;28;20209;-51
2021/05/15 02:47:10;;;;;;;0.30;0.20;;;;;;;11.80;96.60;99415.78;5007359;28;20476;-51
2021/05/15 02:49:35;;;;;;;0.30;0.20;;;;;;;11.70;97.29;99412.66;5011859;28;20228;-51
2021/05/15 02:52:01;;;;;;;0.30;0.20;;;;;;;11.70;97.15;99417.13;5006801;28;20197;-51
2021/05/15 02:54:26;;;;;;;0.30;0.20;;;;;;;11.55;97.82;99416.03;5006793;28;20224;-51
2021/05/15 02:59:19;;;;;;;0.30;0.20;;;;;;;11.62;98.43;99422.78;5050701;28;20681;-54
2021/05/15 03:01:45;;;;;;;0.30;0.20;;;;;;;11.70;97.78;99417.13;5039037;28;20454;-55
2021/05/15 03:04:11;;;;;;;0.30;0.20;;;;;;;11.57;98.47;99414.16;5052371;28;20679;-54
2021/05/15 03:06:36;;;;;;;0.30;0.20;;;;;;;11.52;98.74;99416.19;5052102;28;20247;-55
2021/05/15 03:09:02;;;;;;;0.30;0.20;;;;;;;11.53;99.11;99407.28;5051851;28;20215;-54
2021/05/15 03:11:28;;;;;;;0.30;0.20;;;;;;;11.46;99.42;99414.66;5052163;28;20218;-54
2021/05/15 03:13:53;;;;;;;0.30;0.20;;;;;;;11.53;99.35;99405.47;5051988;28;20443;-54
2021/05/15 03:16:18;;;;;;;0.30;0.20;;;;;;;11.54;99.49;99406.34;5052221;28;20603;-54
2021/05/15 03:18:44;;;;;;;0.30;0.20;;;;;;;11.47;99.73;99403.06;5052050;28;20254;-55
2021/05/15 03:21:09;;;;;;;0.30;0.20;;;;;;;11.40;100.00;99400.78;5052197;28;20559;-54
2021/05/15 03:23:35;;;;;;;0.30;0.20;;;;;;;11.38;100.00;99411.50;5051950;28;20283;-54
2021/05/15 03:26:00;;;;;;;0.30;0.20;;;;;;;11.50;100.00;99415.38;5052286;28;20212;-54
2021/05/15 03:28:26;;;;;;;0.30;0.20;;;;;;;11.50;100.00;99410.91;5051879;28;20224;-55
2021/05/15 03:30:51;;;;;;;0.30;0.20;;;;;;;11.53;100.00;99412.59;5051955;28;20196;-55
2021/05/15 03:33:17;;;;;;;0.30;0.20;;;;;;;11.55;99.74;99413.38;5052314;28;20676;-54
2021/05/15 03:35:42;;;;;;;0.30;0.20;;;;;;;11.58;100.00;99415.88;5052083;28;20199;-54
2021/05/15 03:38:09;;;;;;;0.30;0.20;;;;;;;11.61;99.97;99415.75;5051760;28;20214;-54
2021/05/15 03:40:35;;;;;;;0.30;0.20;;;;;;;11.65;99.90;99412.03;5050652;28;20232;-54
2021/05/15 03:43:00;;;;;;;0.47;0.47;;;;;;;11.63;99.44;99413.88;5050875;28;20532;-54
2021/05/15 03:45:26;;;;;;;0.30;0.20;;;;;;;11.74;99.18;99410.69;5051543;28;20451;-53
2021/05/15 03:47:51;;;;;;;0.30;0.20;;;;;;;11.80;98.98;99414.00;5051469;28;20303;-53
2021/05/15 03:50:17;;;;;;;0.30;0.20;;;;;;;11.81;98.62;99410.38;5051637;28;20305;-53
2021/05/15 03:52:42;;;;;;;0.30;0.20;;;;;;;11.80;98.71;99415.78;5051491;28;20266;-53
2021/05/15 03:55:08;;;;;;;0.30;0.20;;;;;;;11.80;98.34;99415.78;5051365;28;20286;-53
2021/05/15 03:57:34;;;;;;;0.30;0.20;;;;;;;11.78;99.02;99410.47;5025813;28;742162;-53
2021/05/15 03:59:59;;;;;;;0.30;0.20;;;;;;;11.80;98.52;99413.13;5052289;28;20446;-53
2021/05/15 04:02:25;;;;;;;0.30;0.20;;;;;;;11.77;99.34;99413.22;5052511;28;20218;-53
2021/05/15 04:04:51;;;;;;;0.30;0.20;;;;;;;11.73;100.00;99416.97;5052559;28;20278;-53
2021/05/15 04:07:17;;;;;;;0.30;0.20;;;;;;;11.77;100.00;99414.06;5052310;28;20290;-53
2021/05/15 04:09:43;;;;;;;0.30;0.20;;;;;;;11.83;100.00;99419.16;5052126;28;20821;-53
2021/05/15 04:12:10;;;;;;;0.30;0.20;;;;;;;11.86;100.00;99418.16;5052514;28;20443;-54
2021/05/15 04:14:43;;;;;;;0.30;0.30;;;;;;;11.85;100.00;99416.41;5052374;28;20561;-53
2021/05/15 04:19:35;;;;;;;0.30;0.20;;;;;;;11.75;100.00;99409.75;5052187;28;20939;-54
2021/05/15 04:22:02;;;;;;;0.30;0.20;;;;;;;11.90;100.00;99411.72;5052263;28;20450;-54
2021/05/15 04:24:28;;;;;;;0.30;0.20;;;;;;;12.12;98.96;99415.09;5051264;28;20204;-54
2021/05/15 04:26:55;;;;;;;0.30;0.20;;;;;;;12.03;99.29;99414.66;5052260;28;20527;-53
2021/05/15 04:29:21;;;;;;;0.30;0.20;;;;;;;11.90;98.82;99410.88;5052143;28;20534;-53
2021/05/15 04:31:48;;;;;;;0.30;0.20;;;;;;;12.10;97.87;99410.78;5052359;28;20927;-53
2021/05/15 04:34:14;;;;;;;0.30;0.20;;;;;;;12.02;98.19;99411.13;5052165;28;20481;-53
2021/05/15 04:36:39;;;;;;;0.30;0.20;;;;;;;12.07;97.67;99411.78;5052042;28;20498;-54
2021/05/15 04:39:05;;;;;;;0.30;0.20;;;;;;;11.97;98.33;99413.16;5051905;28;20633;-54
2021/05/15 04:41:31;;;;;;;0.30;0.20;;;;;;;12.26;96.89;99409.06;5052266;28;20213;-54
2021/05/15 04:43:57;;;;;;;1.00;0.90;;;;;;;12.18;97.33;99411.25;5051984;28;20592;-53
2021/05/15 04:46:22;;;;;;;0.30;0.20;;;;;;;13.13;93.82;99412.56;5051598;28;20354;-54
2021/05/15 04:48:47;;;;;;;0.30;0.20;;;;;;;14.13;87.81;99408.00;5051727;28;20251;-54
2021/05/15 04:51:13;;;;;;;0.30;0.20;;;;;;;14.56;84.73;99411.72;5051685;28;20283;-54
2021/05/15 04:53:38;;;;;;;0.30;0.20;;;;;;;14.97;82.13;99419.97;5053245;28;20619;-55
2021/05/15 04:56:05;;;;;;;0.30;0.20;;;;;;;14.99;81.53;99418.03;5055652;28;20188;-55
2021/05/15 04:58:31;;;;;;;0.30;0.20;;;;;;;14.89;82.12;99418.69;5055222;28;20332;-54
2021/05/15 05:00:56;;;;;;;0.50;0.50;;;;;;;14.75;82.77;99422.19;5055391;28;20430;-55
2021/05/15 05:03:23;;;;;;;0.40;0.20;;;;;;;14.94;81.51;99422.81;5055131;28;20492;-55
2021/05/15 05:05:49;;;;;;;0.30;0.20;;;;;;;14.59;82.59;99418.72;5054934;28;20661;-56
2021/05/15 05:08:15;;;;;;;0.40;0.20;;;;;;;14.25;84.07;99420.63;5055142;28;20451;-55
2021/05/15 05:10:40;;;;;;;0.30;0.20;;;;;;;14.34;83.70;99422.78;5055256;28;20579;-55
2021/05/15 05:13:06;;;;;;;0.30;0.20;;;;;;;14.52;83.77;99418.19;5055164;28;20220;-56
2021/05/15 05:15:32;;;;;;;0.30;0.20;;;;;;;14.18;84.65;99419.28;5055960;28;20196;-54
2021/05/15 05:17:58;;;;;;;0.30;0.20;;;;;;;14.38;83.38;99426.97;5055026;28;20451;-55
2021/05/15 05:20:23;;;;;;;0.30;0.20;;;;;;;14.31;83.68;99422.97;5054789;28;20279;-54
2021/05/15 05:22:50;;;;;;;0.30;0.20;;;;;;;14.34;84.09;99420.09;5055022;28;20227;-55
2021/05/15 05:25:17;;;;;;;0.70;0.70;;;;;;;14.37;85.07;99421.72;5054914;28;20196;-55
2021/05/15 05:27:46;;;;;;;0.40;0.20;;;;;;;14.01;83.68;99424.72;5054522;28;20482;-54
2021/05/15 05:30:14;;;;;;;0.50;0.50;;;;;;;13.89;85.59;99424.47;5053638;28;20439;-55
2021/05/15 05:32:39;;;;;;;0.30;0.20;;;;;;;13.68;87.01;99422.09;5053424;28;20943;-56
2021/05/15 05:35:05;;;;;;;0.30;0.20;;;;;;;13.60;86.43;99419.88;5054560;28;20441;-55
2021/05/15 05:37:31;;;;;;;0.40;0.20;;;;;;;13.88;85.32;99416.53;5054672;28;20224;-55
2021/05/15 05:39:56;;;;;;;0.30;0.20;;;;;;;14.02;84.70;99410.41;5054691;28;20442;-54
2021/05/15 05:42:22;;;;;;;0.30;0.30;;;;;;;13.43;86.68;99422.56;5054421;28;20200;-55
2021/05/15 05:44:47;;;;;;;0.30;0.20;;;;;;;13.55;86.39;99411.22;5054491;28;20203;-55
2021/05/15 05:47:12;;;;;;;0.30;0.20;;;;;;;13.68;86.62;99414.97;5054563;28;20354;-55
2021/05/15 05:49:38;;;;;;;0.30;0.20;;;;;;;13.81;85.59;99413.31;5054147;28;20230;-55
2021/05/15 05:52:04;;;;;;;0.40;0.30;;;;;;;14.32;84.37;99410.47;5045814;28;20196;-55
2021/05/15 05:54:29;;;;;;;1.53;0.87;;;;;;;14.15;83.36;99411.44;5054132;28;20275;-55
2021/05/15 05:56:55;;;;;;;0.30;0.20;;;;;;;14.26;84.10;99411.69;5054242;28;20446;-57
2021/05/15 05:59:20;;;;;;;0.60;0.60;;;;;;;14.75;82.90;99411.50;5054157;28;20208;-55
2021/05/15 06:01:46;;;;;;;0.30;0.20;;;;;;;14.12;84.16;99417.81;5053932;28;20202;-55
2021/05/15 06:04:11;;;;;;;0.30;0.20;;;;;;;14.02;84.68;99410.41;5053789;28;20271;-55
2021/05/15 06:06:37;;;;;;;0.30;0.20;;;;;;;13.85;84.52;99412.22;5052871;28;20617;-55
2021/05/15 06:09:04;;;;;;;0.33;0.20;;;;;;;14.13;82.61;99411.53;5054117;28;20577;-55
2021/05/15 06:11:30;;;;;;;0.30;0.20;;;;;;;14.27;83.35;99417.88;5054010;28;20212;-55
2021/05/15 06:13:55;;;;;;;0.30;0.20;;;;;;;14.24;84.06;99410.88;5054204;28;20439;-55
2021/05/15 06:16:21;;;;;;;0.30;0.20;;;;;;;14.09;82.86;99409.09;5053571;28;20962;-55
2021/05/15 06:18:46;;;;;;;0.30;0.20;;;;;;;14.33;81.87;99405.00;5053565;28;20231;-53
2021/05/15 06:21:12;;;;;;;0.30;0.20;;;;;;;14.03;83.24;99406.78;5052397;28;20295;-53
2021/05/15 06:23:37;;;;;;;1.43;0.63;;;;;;;14.17;83.04;99412.19;5053812;28;20623;-53
2021/05/15 06:26:08;;;;;;;0.30;0.30;;;;;;;14.20;82.28;99409.34;5053249;28;20208;-52
2021/05/15 06:28:35;;;;;;;0.30;0.20;;;;;;;14.20;82.42;99410.22;5053603;28;20341;-53
2021/05/15 06:31:02;;;;;;;5.53;1.33;;;;;;;14.22;81.67;99408.31;5053308;28;20438;-53
2021/05/15 06:33:27;;;;;;;0.30;0.20;;;;;;;14.31;82.17;99414.94;5053410;28;20443;-53
2021/05/15 06:35:53;;;;;;;0.30;0.20;;;;;;;14.18;81.66;99409.44;5053334;28;20936;-53
2021/05/15 06:38:18;;;;;;;0.50;0.50;;;;;;;14.37;80.47;99419.91;5053418;28;20243;-53
2021/05/15 06:40:44;;;;;;;0.30;0.20;;;;;;;14.05;80.90;99411.09;5053191;28;20307;-53
2021/05/15 06:43:09;;;;;;;0.30;0.20;;;;;;;14.28;81.12;99411.59;5053333;28;20249;-52
2021/05/15 06:45:35;;;;;;;0.30;0.20;;;;;;;14.10;81.02;99414.34;5053057;28;20208;-53
2021/05/15 06:48:00;;;;;;;0.30;0.20;;;;;;;14.06;81.88;99417.28;5052897;28;20226;-53
2021/05/15 06:50:25;;;;;;;0.30;0.20;;;;;;;14.39;79.92;99412.69;5053241;28;20202;-53
2021/05/15 06:52:51;;;;;;;0.30;0.20;;;;;;;14.27;80.97;99424.09;5053319;28;20198;-53
2021/05/15 06:55:17;;;;;;;0.30;0.20;;;;;;;14.34;81.39;99411.22;5053016;28;20200;-53
2021/05/15 06:57:42;;;;;;;0.37;0.30;;;;;;;14.47;81.26;99417.63;5053022;28;20220;-53
2021/05/15 07:00:09;;;;;;;0.30;0.20;;;;;;;14.56;80.07;99413.53;5052773;28;20199;-53
2021/05/15 07:02:34;;;;;;;0.40;0.40;;;;;;;14.57;79.94;99412.59;5052894;28;20262;-53
2021/05/15 07:05:01;;;;;;;0.80;0.40;;;;;;;14.47;79.97;99407.78;5051777;28;20843;-53
2021/05/15 07:07:26;;;;;;;0.30;0.20;;;;;;;14.60;80.51;99418.63;5053031;28;20263;-53
2021/05/15 07:09:52;;;;;;;2.63;0.80;;;;;;;14.66;78.36;99417.38;5052941;28;20489;-53
2021/05/15 07:12:17;;;;;;;0.30;0.20;;;;;;;14.58;78.36;99423.19;5053061;28;20226;-52
2021/05/15 07:14:44;;;;;;;0.63;0.63;;;;;;;14.57;79.49;99416.13;5052658;28;20693;-53
2021/05/15 07:17:10;;;;;;;0.60;0.60;;;;;;;14.61;79.28;99412.31;5052494;28;20568;-53
2021/05/15 07:19:35;;;;;;;1.70;1.70;;;;;;;14.39;80.16;99409.13;5052931;28;20474;-54
2021/05/15 07:22:00;;;;;;;0.30;0.20;;;;;;;14.89;79.21;99411.53;5051377;28;20200;-53
2021/05/15 07:24:26;;;;;;;0.40;0.40;;;;;;;15.05;78.48;99406.94;5052635;28;20287;-53
2021/05/15 07:26:51;;;;;;;1.40;1.30;;;;;;;15.40;77.56;99402.09;5052397;28;20276;-53
2021/05/15 07:29:17;;;;;;;0.30;0.20;;;;;;;15.83;73.99;99399.41;5052383;28;20207;-53
2021/05/15 07:31:42;;;;;;;0.30;0.20;;;;;;;15.99;75.02;99393.91;5052343;28;20610;-53
2021/05/15 07:34:08;;;;;;;0.30;0.20;;;;;;;15.85;73.54;99394.81;5052337;28;20844;-53
2021/05/15 07:36:33;;;;;;;0.93;0.90;;;;;;;15.92;72.89;99392.59;5052584;28;20633;-53
2021/05/15 07:38:59;;;;;;;0.33;0.20;;;;;;;15.42;74.06;99393.97;5052282;28;20211;-53
2021/05/15 07:41:25;;;;;;;0.30;0.20;;;;;;;15.40;74.79;99393.22;5052510;28;20200;-53
2021/05/15 07:43:51;;;;;;;0.40;0.20;;;;;;;15.30;73.86;99384.88;5052079;28;20279;-52
2021/05/15 07:46:17;;;;;;;0.40;0.20;;;;;;;15.11;75.15;99379.81;5051983;28;20478;-53
2021/05/15 07:48:43;;;;;;;0.40;0.20;;;;;;;15.98;73.82;99376.09;5051976;28;20558;-52
2021/05/15 07:51:15;;;;;;;0.40;0.20;;;;;;;16.22;72.97;99387.03;5052548;28;20654;-53
2021/05/15 07:53:40;;;;;;;0.40;0.30;;;;;;;16.31;71.83;99386.44;5039386;28;20462;-54
2021/05/15 07:56:07;;;;;;;0.40;0.30;;;;;;;16.07;70.33;99388.91;5052299;28;20518;-53
2021/05/15 07:58:33;;;;;;;0.40;0.30;;;;;;;16.02;70.67;99382.13;5038862;28;20224;-53
2021/05/15 08:01:00;;;;;;;0.40;0.20;;;;;;;15.78;71.56;99382.78;5052188;28;20438;-53
2021/05/15 08:03:26;;;;;;;0.40;0.20;;;;;;;15.91;71.69;99390.88;5039165;28;20458;-53
2021/05/15 08:05:51;;;;;;;0.40;0.40;;;;;;;15.44;72.48;99388.50;5052072;28;20481;-54
2021/05/15 08:08:17;;;;;;;0.50;0.40;;;;;;;15.39;73.88;99386.13;5052022;28;20840;-53
2021/05/15 08:10:42;;;;;;;0.40;0.20;;;;;;;15.52;74.45;99387.09;5052316;28;20188;-53
2021/05/15 08:13:08;;;;;;;0.97;0.97;;;;;;;15.43;73.81;99398.38;5051932;28;20194;-53
2021/05/15 08:15:34;;;;;;;0.40;0.20;;;;;;;15.08;75.78;99390.72;5052095;28;20207;-52
2021/05/15 08:18:00;;;;;;;0.33;0.20;;;;;;;15.22;75.80;99381.84;5051780;28;20302;-52
2021/05/15 08:20:25;;;;;;;0.30;0.20;;;;;;;15.15;75.78;99380.50;5052061;28;20959;-53
2021/05/15 08:22:51;;;;;;;0.30;0.20;;;;;;;15.05;76.71;99388.22;5051878;28;20192;-52
2021/05/15 08:25:17;;;;;;;0.40;0.20;;;;;;;15.29;76.48;99383.16;5052080;28;20672;-53
2021/05/15 08:27:44;;;;;;;0.40;0.40;;;;;;;15.22;76.68;99379.16;5051668;28;20224;-53
2021/05/15 08:30:17;;;;;;;0.40;0.20;;;;;;;15.38;75.96;99381.75;5055839;28;20446;-52
2021/05/15 08:32:43;;;;;;;0.40;0.20;;;;;;;15.25;75.81;99383.47;5055933;28;20485;-53
2021/05/15 08:35:09;;;;;;;0.30;0.20;;;;;;;15.36;76.93;99391.69;5055658;28;20931;-52
2021/05/15 08:37:35;;;;;;;0.40;0.20;;;;;;;15.30;77.98;99389.38;5055871;28;20219;-52
2021/05/15 08:40:01;;;;;;;0.30;0.20;;;;;;;15.50;76.23;99380.13;5055683;28;20430;-53
2021/05/15 08:42:31;;;;;;;0.30;0.20;;;;;;;15.65;75.89;99384.53;5055628;28;20446;-53
2021/05/15 08:44:57;;;;;;;0.30;0.20;;;;;;;15.28;76.68;99375.22;5055757;28;20191;-53
2021/05/15 08:47:22;;;;;;;0.63;0.63;;;;;;;15.08;77.39;99380.03;5055499;28;20549;-53
2021/05/15 08:49:48;;;;;;;0.30;0.20;;;;;;;15.17;78.07;99377.72;5055724;28;20485;-53
2021/05/15 08:52:14;;;;;;;0.30;0.20;;;;;;;14.99;78.33;99375.22;5055972;28;20192;-53
2021/05/15 08:54:40;;;;;;;0.40;0.20;;;;;;;14.76;78.86;99376.63;5055540;28;20590;-53
2021/05/15 08:57:07;;;;;;;0.30;0.20;;;;;;;15.12;77.71;99375.34;5055376;28;20966;-53
2021/05/15 08:59:33;;;;;;;0.47;0.43;;;;;;;14.67;79.64;99363.81;5055840;28;20811;-53
2021/05/15 09:01:59;;;;;;;0.40;0.30;;;;;;;14.70;80.10;99371.66;5055545;28;20446;-53
2021/05/15 09:04:46;;;;;;;0.40;0.20;;;;;;;14.92;78.96;99370.31;5055393;28;20474;-53
2021/05/15 09:07:12;;;;;;;0.30;0.20;;;;;;;15.18;78.73;99361.56;5055283;28;20999;-53
2021/05/15 09:09:39;;;;;;;0.30;0.20;;;;;;;15.01;79.45;99357.25;5055101;28;20920;-53
2021/05/15 09:12:06;;;;;;;0.30;0.20;;;;;;;15.27;78.22;99360.13;5055285;28;20463;-52
2021/05/15 09:14:32;;;;;;;0.30;0.20;;;;;;;15.19;78.91;99365.09;5055268;28;20799;-53
2021/05/15 09:17:00;;;;;;;0.30;0.20;;;;;;;15.36;77.56;99362.25;5055086;28;20497;-53
2021/05/15 09:19:29;;;;;;;0.30;0.20;;;;;;;14.95;78.56;99354.97;5055144;28;20474;-53
2021/05/15 09:22:13;;;;;;;0.30;0.20;;;;;;;15.03;79.34;99363.38;5054886;28;20451;-53
2021/05/15 09:24:44;;;;;;;0.40;0.20;;;;;;;15.34;77.98;99354.28;5043327;28;20446;-53
2021/05/15 09:27:14;;;;;;;0.30;0.20;;;;;;;15.43;77.63;99351.97;5053318;28;20491;-53
2021/05/15 09:29:46;;;;;;;0.30;0.20;;;;;;;15.35;78.26;99344.41;5054697;28;20943;-53
2021/05/15 09:32:14;;;;;;;0.30;0.20;;;;;;;15.24;76.68;99360.31;5054765;28;20508;-53
2021/05/15 09:34:49;;;;;;;0.30;0.20;;;;;;;15.42;77.83;99356.47;5054934;28;20944;-53
2021/05/15 09:37:29;;;;;;;0.30;0.20;;;;;;;15.23;78.75;99358.59;5054702;28;20508;-53
2021/05/15 09:39:56;;;;;;;0.30;0.20;;;;;;;15.26;79.60;99351.22;5053092;28;20978;-53
2021/05/15 09:42:23;;;;;;;0.40;0.20;;;;;;;15.23;82.48;99353.25;5054858;28;20508;-53
2021/05/15 09:44:49;;;;;;;0.30;0.20;;;;;;;15.22;83.89;99352.41;5054455;28;20451;-53
2021/05/15 09:47:19;;;;;;;0.30;0.20;;;;;;;14.92;87.07;99343.56;5054770;28;20848;-53
2021/05/15 09:49:49;;;;;;;0.30;0.20;;;;;;;15.02;88.93;99342.06;5054244;28;20451;-53
2021/05/15 09:52:15;;;;;;;0.30;0.20;;;;;;;14.83;88.09;99345.00;5054624;28;20551;-53
2021/05/15 09:54:43;;;;;;;0.30;0.20;;;;;;;14.50;91.25;99339.88;5054614;28;20446;-53
2021/05/15 09:57:12;;;;;;;0.30;0.20;;;;;;;14.71;92.99;99341.25;5054149;28;20972;-53
2021/05/15 09:59:41;;;;;;;0.30;0.20;;;;;;;14.58;95.87;99336.75;5054305;28;20443;-53
2021/05/15 10:02:09;;;;;;;0.30;0.20;;;;;;;14.92;93.05;99333.72;5054555;28;20512;-53
2021/05/15 10:04:48;;;;;;;0.30;0.20;;;;;;;14.74;93.29;99330.38;5054122;28;20446;-54
2021/05/15 10:07:17;;;;;;;0.30;0.20;;;;;;;14.42;92.47;99334.09;5046685;28;20499;-53
2021/05/15 10:09:44;;;;;;;0.30;0.20;;;;;;;14.43;92.09;99334.00;5052776;28;20443;-53
2021/05/15 10:12:12;;;;;;;0.30;0.20;;;;;;;14.52;90.43;99337.97;5053762;28;20457;-54
2021/05/15 10:14:39;;;;;;;0.30;0.20;;;;;;;15.06;92.58;99335.53;5053793;28;20818;-54
2021/05/15 10:17:07;;;;;;;0.30;0.20;;;;;;;14.74;89.25;99326.84;5052777;28;20475;-54
2021/05/15 10:19:33;;;;;;;0.40;0.30;;;;;;;14.95;91.17;99322.00;5054259;28;20497;-54
2021/05/15 10:22:00;;;;;;;0.30;0.20;;;;;;;14.87;87.56;99318.91;5053484;28;20447;-54
2021/05/15 10:24:33;;;;;;;0.30;0.20;;;;;;;15.17;86.86;99314.31;5053794;28;20443;-54
2021/05/15 10:27:05;;;;;;;0.30;0.20;;;;;;;15.53;83.06;99305.78;5053589;28;20486;-54
2021/05/15 10:29:43;;;;;;;0.30;0.20;;;;;;;15.34;85.05;99308.75;5053484;28;20963;-54
2021/05/15 10:32:15;;;;;;;0.30;0.20;;;;;;;15.40;81.74;99296.81;5053362;28;20993;-54
2021/05/15 10:34:48;;;;;;;0.30;0.20;;;;;;;15.83;81.91;99292.22;5053501;28;20447;-54
2021/05/15 10:37:20;;;;;;;0.40;0.30;;;;;;;15.69;80.59;99298.47;5052180;28;20548;-54
2021/05/15 10:39:48;;;;;;;0.40;0.30;;;;;;;16.04;79.01;99281.91;5053210;28;20443;-53
2021/05/15 10:42:27;;;;;;;0.40;0.20;;;;;;;16.08;78.67;99277.19;5053317;28;20508;-54
2021/05/15 10:44:54;;;;;;;0.40;0.20;;;;;;;16.33;77.67;99277.25;5053118;28;20489;-54
2021/05/15 10:47:22;;;;;;;0.37;0.20;;;;;;;16.10;76.07;99270.75;5053265;28;20494;-54
2021/05/15 10:49:50;;;;;;;0.40;0.20;;;;;;;16.65;74.55;99276.81;5052955;28;20450;-54
2021/05/15 10:52:22;;;;;;;0.97;0.97;;;;;;;16.67;75.15;99272.22;5052727;28;20529;-54
2021/05/15 10:54:59;;;;;;;0.40;0.20;;;;;;;16.68;73.54;99261.41;5053213;28;20596;-54
2021/05/15 10:57:27;;;;;;;0.60;0.60;;;;;;;16.86;74.67;99265.47;5052893;28;20535;-54
2021/05/15 10:59:55;;;;;;;0.40;0.20;;;;;;;17.21;70.95;99242.44;5052516;28;20931;-53
2021/05/15 11:02:32;;;;;;;0.40;0.20;;;;;;;17.15;71.54;99249.97;5052959;28;20443;-54
2021/05/15 11:05:10;;;;;;;0.40;0.20;;;;;;;17.39;71.36;99241.94;5051704;28;20442;-54
2021/05/15 11:07:39;;;;;;;0.40;0.20;;;;;;;17.20;71.05;99230.81;5052469;28;20551;-54
2021/05/15 11:10:09;;;;;;;0.40;0.20;;;;;;;17.42;71.69;99236.34;5052913;28;20956;-54
2021/05/15 11:12:42;;;;;;;0.40;0.20;;;;;;;17.25;69.36;99227.78;5051736;28;20459;-54
2021/05/15 11:15:12;;;;;;;0.40;0.20;;;;;;;17.17;70.73;99228.38;5052876;28;20447;-52
2021/05/15 11:17:39;;;;;;;0.40;0.20;;;;;;;17.02;71.00;99224.97;5052647;28;20467;-53
2021/05/15 11:20:16;;;;;;;0.40;0.20;;;;;;;17.09;71.09;99217.31;5052839;28;20504;-53
2021/05/15 11:22:51;;;;;;;0.40;0.20;;;;;;;17.25;67.52;99217.91;5052200;28;20480;-53
2021/05/15 11:25:24;;;;;;;0.40;0.20;;;;;;;17.45;65.20;99216.47;5052773;28;20442;-53
2021/05/15 11:27:58;;;;;;;0.40;0.20;;;;;;;17.29;65.78;99202.44;5051396;28;20486;-53
2021/05/15 11:30:24;;;;;;;0.40;0.20;;;;;;;17.54;64.92;99205.00;5052581;28;20443;-53
2021/05/15 11:32:55;;;;;;;0.40;0.30;;;;;;;17.79;62.60;99197.81;5052492;28;20455;-53
2021/05/15 11:35:21;;;;;;;0.40;0.20;;;;;;;17.47;63.99;99201.06;5052177;28;20956;-53
2021/05/15 11:37:48;;;;;;;0.40;0.20;;;;;;;17.22;66.63;99193.09;5052146;28;20466;-53